Time;durP1;ratioP1;P1;durP2;ratioP2;P2;SDS_P1;SDS_P2;PMS_P1;PMS_P2;Temp;Humidity;BMP_temperature;BMP_pressure;BME280_temperature;BME280_humidity;BME280_pressure;Samples;Min_cycle;Max_cycle;Signal;HPM_P1;HPM_P2
2022/05/18 00:00:20;;;;;;;1.75;1.65;;;;;;;22.10;50.05;100721.16;4975905;28;20788;-72
2022/05/18 00:02:46;;;;;;;3.30;1.55;;;;;;;22.08;50.12;100724.25;4975860;28;20396;-71
2022/05/18 00:05:11;;;;;;;3.10;2.20;;;;;;;22.08;50.20;100726.19;4974756;28;20427;-71
2022/05/18 00:07:37;;;;;;;3.40;1.40;;;;;;;22.01;50.19;100726.63;4975506;28;20767;-72
2022/05/18 00:10:04;;;;;;;2.00;1.60;;;;;;;21.91;50.14;100717.78;4975536;28;20884;-72
2022/05/18 00:12:29;;;;;;;2.83;1.80;;;;;;;21.86;50.33;100720.66;4975540;28;20396;-72
2022/05/18 00:14:54;;;;;;;3.80;1.73;;;;;;;21.83;50.10;100724.88;4974571;28;20388;-72
2022/05/18 00:17:20;;;;;;;2.57;1.60;;;;;;;21.78;50.10;100724.97;4975390;28;20407;-72
2022/05/18 00:19:45;;;;;;;3.63;1.30;;;;;;;21.77;50.16;100722.53;4975426;28;20400;-71
2022/05/18 00:22:11;;;;;;;2.47;1.55;;;;;;;21.73;50.13;100727.88;4974225;28;20412;-72
2022/05/18 00:24:36;;;;;;;4.00;1.80;;;;;;;21.69;50.35;100727.69;4975407;28;20406;-72
2022/05/18 00:27:03;;;;;;;2.85;1.30;;;;;;;21.67;50.46;100724.41;4974097;28;20459;-72
2022/05/18 00:29:29;;;;;;;1.85;1.38;;;;;;;21.67;50.15;100720.81;4974660;28;20404;-72
2022/05/18 00:31:55;;;;;;;2.37;1.40;;;;;;;21.66;50.52;100728.31;4975396;28;20404;-72
2022/05/18 00:34:20;;;;;;;2.88;1.63;;;;;;;21.67;50.33;100729.09;4975050;28;20427;-72
2022/05/18 00:36:45;;;;;;;1.60;1.50;;;;;;;21.61;50.32;100733.09;4973335;28;20904;-71
2022/05/18 00:39:11;;;;;;;2.20;1.50;;;;;;;21.55;50.57;100724.16;4975251;28;20400;-72
2022/05/18 00:41:37;;;;;;;3.30;1.67;;;;;;;21.54;50.46;100730.78;4975272;28;20876;-72
2022/05/18 00:44:04;;;;;;;1.70;1.40;;;;;;;21.51;50.50;100734.16;4975084;28;20404;-72
2022/05/18 00:46:29;;;;;;;2.78;1.70;;;;;;;21.44;50.61;100735.72;4973239;28;20419;-71
2022/05/18 00:48:55;;;;;;;2.20;1.43;;;;;;;21.41;50.79;100734.38;4973547;28;20420;-72
2022/05/18 00:51:29;;;;;;;2.43;1.50;;;;;;;21.38;50.72;100729.50;4962569;28;20466;-72
2022/05/18 00:54:02;;;;;;;2.55;1.75;;;;;;;21.36;50.69;100729.00;4974953;28;20416;-72
2022/05/18 00:56:33;;;;;;;1.60;1.50;;;;;;;21.29;50.83;100733.31;4974247;28;20426;-71
2022/05/18 00:59:07;;;;;;;1.80;1.67;;;;;;;21.23;51.11;100742.81;4959680;28;20392;-72
2022/05/18 01:01:32;;;;;;;1.83;1.50;;;;;;;21.20;51.08;100739.56;4974675;28;20424;-72
2022/05/18 01:03:59;;;;;;;1.60;1.37;;;;;;;21.20;50.97;100731.28;4973888;28;20531;-72
2022/05/18 01:06:35;;;;;;;3.33;1.70;;;;;;;21.18;51.05;100740.97;4974828;28;20400;-71
2022/05/18 01:09:17;;;;;;;2.10;1.55;;;;;;;21.16;51.08;100729.44;4974589;28;20419;-71
2022/05/18 01:11:42;;;;;;;4.03;1.60;;;;;;;21.14;51.26;100734.47;4973231;28;20400;-72
2022/05/18 01:14:17;;;;;;;4.23;1.60;;;;;;;21.12;51.22;100731.19;4973495;28;20435;-72
2022/05/18 01:16:42;;;;;;;2.80;1.50;;;;;;;21.16;50.96;100724.75;4959517;28;20391;-72
2022/05/18 01:19:29;;;;;;;1.83;1.27;;;;;;;21.18;50.66;100724.44;4974356;28;20396;-71
2022/05/18 01:22:25;;;;;;;2.43;1.50;;;;;;;21.22;50.50;100730.97;4974752;28;20404;-72
2022/05/18 01:24:53;;;;;;;1.85;1.50;;;;;;;21.25;50.25;100724.00;4965552;28;20434;-72
2022/05/18 01:27:18;;;;;;;3.28;1.52;;;;;;;21.27;50.13;100717.09;4974057;28;20511;-72
2022/05/18 01:29:43;;;;;;;2.33;1.40;;;;;;;21.27;49.92;100728.13;4974124;28;20408;-72
2022/05/18 01:32:14;;;;;;;3.77;1.30;;;;;;;21.26;50.07;100722.91;4974110;28;20894;-72
2022/05/18 01:34:42;;;;;;;1.70;1.58;;;;;;;21.28;50.13;100734.41;4973193;28;20577;-72
2022/05/18 01:37:11;;;;;;;2.38;1.50;;;;;;;21.26;50.23;100731.16;4974121;28;20475;-71
2022/05/18 01:39:43;;;;;;;1.45;1.38;;;;;;;21.24;50.02;100733.44;4972712;28;20887;-72
2022/05/18 01:42:27;;;;;;;5.65;1.52;;;;;;;21.18;50.09;100728.00;4972710;28;20404;-72
2022/05/18 01:44:53;;;;;;;2.45;1.60;;;;;;;21.14;50.18;100737.22;4973100;28;20452;-72
2022/05/18 01:47:18;;;;;;;3.85;1.42;;;;;;;21.13;50.53;100741.91;4973751;28;20475;-72
2022/05/18 01:49:45;;;;;;;7.30;1.57;;;;;;;21.14;50.93;100746.28;4972443;28;20875;-72
2022/05/18 01:52:11;;;;;;;1.65;1.40;;;;;;;21.11;50.65;100744.13;4972661;28;20875;-72
2022/05/18 01:54:42;;;;;;;1.65;1.45;;;;;;;21.07;50.85;100743.13;4972757;28;20427;-72
2022/05/18 01:57:08;;;;;;;2.78;1.70;;;;;;;21.05;50.95;100752.78;4973590;28;20788;-71
2022/05/18 01:59:35;;;;;;;3.63;1.20;;;;;;;21.04;51.03;100753.94;4973572;28;20400;-72
2022/05/18 02:02:00;;;;;;;2.28;1.67;;;;;;;21.02;51.05;100753.41;4973570;28;20431;-72
2022/05/18 02:04:25;;;;;;;4.80;1.37;;;;;;;20.99;51.38;100763.09;4972610;28;20443;-72
2022/05/18 02:06:51;;;;;;;1.40;1.30;;;;;;;20.94;51.52;100754.97;4973606;28;20407;-72
2022/05/18 02:09:19;;;;;;;4.80;1.60;;;;;;;20.89;52.01;100760.56;4973548;28;20392;-71
2022/05/18 02:11:45;;;;;;;1.52;1.42;;;;;;;20.83;52.23;100750.78;4973332;28;20400;-72
2022/05/18 02:14:10;;;;;;;2.15;1.80;;;;;;;20.79;52.50;100759.94;4972681;28;20412;-72
2022/05/18 02:16:36;;;;;;;2.07;1.50;;;;;;;20.74;52.65;100757.28;4973388;28;20787;-72
2022/05/18 02:19:01;;;;;;;3.55;1.63;;;;;;;20.75;52.69;100759.72;4973602;28;20392;-71
2022/05/18 02:21:27;;;;;;;1.87;1.40;;;;;;;20.74;52.55;100754.53;4972061;28;20397;-71
2022/05/18 02:23:52;;;;;;;4.43;1.70;;;;;;;20.69;52.67;100755.44;4972407;28;20456;-71
2022/05/18 02:26:18;;;;;;;3.17;1.80;;;;;;;20.60;52.52;100749.84;4973298;28;20389;-72
2022/05/18 02:28:44;;;;;;;2.40;1.80;;;;;;;20.54;52.58;100751.06;4973016;28;20412;-72
2022/05/18 02:31:11;;;;;;;1.30;1.20;;;;;;;20.55;52.80;100751.84;4973120;28;20428;-72
2022/05/18 02:33:37;;;;;;;2.65;1.90;;;;;;;20.54;52.89;100748.31;4986924;28;20424;-72
2022/05/18 02:36:03;;;;;;;10.82;1.52;;;;;;;20.54;52.82;100750.25;4973044;28;20463;-72
2022/05/18 02:38:28;;;;;;;1.50;1.40;;;;;;;20.53;52.90;100749.41;4973039;28;20440;-72
2022/05/18 02:40:58;;;;;;;2.17;1.80;;;;;;;20.52;52.99;100753.28;4973130;28;20454;-72
2022/05/18 02:43:24;;;;;;;1.88;1.50;;;;;;;20.54;53.00;100751.06;4972079;28;20427;-72
2022/05/18 02:45:49;;;;;;;2.20;2.00;;;;;;;20.52;52.89;100753.28;4972768;28;20480;-72
2022/05/18 02:48:14;;;;;;;1.98;1.70;;;;;;;20.51;52.79;100764.63;4972856;28;20481;-72
2022/05/18 02:50:40;;;;;;;1.93;1.73;;;;;;;20.47;52.99;100761.66;4971592;28;20451;-72
2022/05/18 02:53:06;;;;;;;1.60;1.50;;;;;;;20.45;52.80;100763.88;4972951;28;20883;-72
2022/05/18 02:58:15;;;;;;;2.58;1.95;;;;;;;20.39;53.19;100764.25;4972837;28;20447;-72
2022/05/18 03:00:40;;;;;;;3.13;2.07;;;;;;;20.36;53.54;100770.38;4971385;28;20408;-72
2022/05/18 03:03:05;;;;;;;2.73;1.77;;;;;;;20.32;53.72;100769.38;4971610;28;20388;-71
2022/05/18 03:05:31;;;;;;;3.43;1.50;;;;;;;20.25;54.17;100766.97;4971787;28;20848;-72
2022/05/18 03:07:58;;;;;;;4.07;1.75;;;;;;;20.22;54.28;100769.50;4972533;28;20412;-72
2022/05/18 03:10:24;;;;;;;3.40;1.57;;;;;;;20.23;54.17;100771.94;4990663;28;20487;-72
2022/05/18 03:12:49;;;;;;;3.23;1.70;;;;;;;20.23;54.66;100769.19;4976651;28;20396;-72
2022/05/18 03:15:14;;;;;;;2.30;1.80;;;;;;;20.21;55.43;100774.19;4975907;28;20490;-72
2022/05/18 03:17:40;;;;;;;2.50;2.30;;;;;;;20.20;55.80;100776.13;4975283;28;20407;-72
2022/05/18 03:20:07;;;;;;;2.50;1.75;;;;;;;20.16;56.20;100779.75;4975685;28;20800;-72
2022/05/18 03:25:16;;;;;;;5.37;2.10;;;;;;;20.11;56.68;100794.44;4976640;28;20387;-72
2022/05/18 03:27:43;;;;;;;2.33;1.90;;;;;;;20.06;57.04;100793.69;4975502;28;20420;-72
2022/05/18 03:30:10;;;;;;;2.23;1.90;;;;;;;20.02;56.86;100793.47;4976302;28;20400;-72
2022/05/18 03:32:35;;;;;;;4.18;2.33;;;;;;;20.00;57.16;100792.13;4976229;28;20407;-72
2022/05/18 03:35:01;;;;;;;7.80;2.70;;;;;;;19.94;57.34;100790.59;4975146;28;20815;-72
2022/05/18 03:37:26;;;;;;;2.03;1.87;;;;;;;19.94;57.60;100801.59;4973773;28;20416;-72
2022/05/18 03:39:51;;;;;;;3.95;2.20;;;;;;;19.95;57.66;100806.81;4975676;28;20408;-72
2022/05/18 03:42:17;;;;;;;2.23;1.90;;;;;;;19.92;57.72;100796.38;4976219;28;20491;-72
2022/05/18 03:44:42;;;;;;;4.23;2.50;;;;;;;19.89;57.79;100798.94;4976130;28;20926;-72
2022/05/18 03:47:07;;;;;;;3.80;2.07;;;;;;;19.88;57.75;100805.53;4975121;28;20472;-72
2022/05/18 03:49:33;;;;;;;4.27;2.30;;;;;;;19.89;57.68;100802.47;4971262;28;20409;-72
2022/05/18 03:51:58;;;;;;;2.03;1.93;;;;;;;19.86;57.88;100792.06;4975709;28;20518;-72
2022/05/18 03:54:23;;;;;;;2.27;2.10;;;;;;;19.82;58.13;100806.72;4974933;28;20404;-72
2022/05/18 03:56:49;;;;;;;2.40;2.10;;;;;;;19.82;58.11;100806.72;4971308;28;20811;-72
2022/05/18 03:59:14;;;;;;;4.40;2.20;;;;;;;19.84;58.34;100807.25;4973304;28;20899;-72
2022/05/18 04:01:41;;;;;;;2.87;2.00;;;;;;;19.84;58.50;100812.75;4973272;28;20408;-72
2022/05/18 04:04:07;;;;;;;6.72;1.92;;;;;;;19.83;58.56;100814.66;4974443;28;20467;-72
2022/05/18 04:06:32;;;;;;;5.93;2.10;;;;;;;19.83;58.62;100811.91;4975207;28;20407;-72
2022/05/18 04:08:57;;;;;;;1.98;1.88;;;;;;;19.75;59.01;100815.34;4989195;28;20835;-72
2022/05/18 04:11:23;;;;;;;3.00;2.03;;;;;;;19.72;59.09;100815.13;4973317;28;20431;-72
2022/05/18 04:13:48;;;;;;;2.87;2.10;;;;;;;19.71;59.04;100819.00;4975333;28;20875;-72
2022/05/18 04:16:13;;;;;;;2.20;2.07;;;;;;;19.68;59.08;100817.66;4974593;28;20406;-72
2022/05/18 04:18:38;;;;;;;3.10;2.13;;;;;;;19.68;58.99;100812.97;4975561;28;20400;-72
2022/05/18 04:21:06;;;;;;;3.25;1.80;;;;;;;19.69;59.16;100822.06;4966717;28;20789;-72
2022/05/18 04:23:31;;;;;;;2.15;1.90;;;;;;;19.62;59.38;100822.41;4970385;28;20426;-72
2022/05/18 04:25:57;;;;;;;2.93;1.87;;;;;;;19.64;59.26;100825.69;4974944;28;20487;-71
2022/05/18 04:28:22;;;;;;;2.70;2.50;;;;;;;19.63;59.45;100824.03;4973061;28;20850;-72
2022/05/18 04:30:49;;;;;;;3.73;2.30;;;;;;;19.65;59.33;100841.06;4967362;28;20447;-72
2022/05/18 04:33:18;;;;;;;3.10;2.50;;;;;;;19.63;59.45;100839.69;4969984;28;20424;-72
2022/05/18 04:35:44;;;;;;;4.60;2.20;;;;;;;19.60;59.52;100843.03;4971810;28;20412;-71
2022/05/18 04:38:09;;;;;;;4.10;2.37;;;;;;;19.60;59.32;100845.78;4974350;28;20407;-71
2022/05/18 04:40:34;;;;;;;4.97;2.20;;;;;;;19.62;59.45;100849.91;4974281;28;20491;-72
2022/05/18 04:43:00;;;;;;;3.60;2.07;;;;;;;19.61;59.40;100844.69;4972176;28;20560;-72
2022/05/18 04:45:25;;;;;;;7.17;2.83;;;;;;;19.55;59.69;100848.63;4972419;28;20815;-72
2022/05/18 04:47:50;;;;;;;7.77;2.43;;;;;;;19.49;60.06;100852.56;4974858;28;20470;-72
2022/05/18 04:50:16;;;;;;;3.55;2.40;;;;;;;19.47;59.99;100858.34;4974585;28;20461;-72
2022/05/18 04:52:51;;;;;;;2.57;2.37;;;;;;;19.51;59.63;100864.88;4973530;28;20396;-74
2022/05/18 04:55:16;;;;;;;6.32;2.42;;;;;;;19.48;59.91;100865.47;4974363;28;20447;-73
2022/05/18 04:57:42;;;;;;;3.07;2.20;;;;;;;19.47;59.87;100872.09;4971454;28;20455;-73
2022/05/18 05:00:11;;;;;;;3.92;2.53;;;;;;;19.42;59.99;100883.16;4966039;28;20455;-72
2022/05/18 05:02:37;;;;;;;5.07;2.60;;;;;;;19.43;59.89;100876.53;4968358;28;20420;-71
2022/05/18 05:05:06;;;;;;;4.25;2.55;;;;;;;19.47;59.70;100871.25;4969920;28;20510;-72
2022/05/18 05:07:31;;;;;;;3.72;2.83;;;;;;;19.52;59.64;100874.78;4971874;28;20415;-73
2022/05/18 05:09:56;;;;;;;3.93;2.70;;;;;;;19.57;59.52;100880.19;4976170;28;20412;-73
2022/05/18 05:12:22;;;;;;;3.30;2.70;;;;;;;19.59;59.46;100880.72;4989528;28;20402;-73
2022/05/18 05:14:47;;;;;;;4.03;2.63;;;;;;;19.60;59.56;100882.38;4988051;28;20410;-73
2022/05/18 05:17:12;;;;;;;4.00;2.80;;;;;;;19.65;59.37;100878.75;4975058;28;20499;-73
2022/05/18 05:19:38;;;;;;;3.42;2.85;;;;;;;19.66;59.53;100874.84;4978163;28;20884;-73
2022/05/18 05:22:04;;;;;;;4.83;2.97;;;;;;;19.71;59.60;100887.72;4974290;28;20404;-73
2022/05/18 05:24:29;;;;;;;3.85;2.95;;;;;;;19.73;59.57;100888.25;4974948;28;20450;-74
2022/05/18 05:26:54;;;;;;;5.10;3.20;;;;;;;19.75;59.50;100892.34;4974127;28;20496;-73
2022/05/18 05:29:20;;;;;;;3.13;2.78;;;;;;;19.75;59.59;100895.09;4972614;28;20419;-73
2022/05/18 05:31:46;;;;;;;3.70;3.00;;;;;;;19.60;60.00;100893.34;4971388;28;20416;-71
2022/05/18 05:34:11;;;;;;;4.00;3.38;;;;;;;19.62;60.15;100898.56;4978605;28;20931;-72
2022/05/18 05:36:36;;;;;;;3.63;3.13;;;;;;;19.67;60.08;100893.81;4973356;28;20404;-71
2022/05/18 05:39:02;;;;;;;2.77;2.53;;;;;;;19.72;60.35;100892.94;4974045;28;20431;-72
2022/05/18 05:41:28;;;;;;;4.72;2.97;;;;;;;19.79;60.06;100895.34;4973712;28;20807;-71
2022/05/18 05:43:54;;;;;;;5.97;3.40;;;;;;;19.85;59.88;100899.66;4981869;28;20506;-71
2022/05/18 05:46:20;;;;;;;6.93;2.40;;;;;;;19.87;59.86;100902.91;4973706;28;20396;-72
2022/05/18 05:48:46;;;;;;;6.87;3.10;;;;;;;19.86;59.66;100902.09;4973709;28;20425;-71
2022/05/18 05:51:13;;;;;;;6.05;2.80;;;;;;;19.90;59.81;100897.63;4973565;28;20487;-71
2022/05/18 05:53:40;;;;;;;4.20;2.78;;;;;;;19.93;59.67;100894.28;4972157;28;20392;-71
2022/05/18 05:56:10;;;;;;;5.80;3.07;;;;;;;19.91;59.78;100890.22;4972494;28;20416;-71
2022/05/18 05:58:36;;;;;;;3.55;3.20;;;;;;;19.90;59.91;100896.81;4973256;28;20811;-72
2022/05/18 06:01:03;;;;;;;4.80;3.22;;;;;;;19.92;59.87;100895.41;4972431;28;20412;-71
2022/05/18 06:03:29;;;;;;;5.90;3.30;;;;;;;19.98;59.92;100901.66;4976871;28;20414;-72
2022/05/18 06:05:56;;;;;;;6.30;2.83;;;;;;;20.01;59.88;100895.56;4974070;28;20475;-71
2022/05/18 06:08:22;;;;;;;5.63;2.78;;;;;;;20.04;60.00;100905.97;4983750;28;20435;-72
2022/05/18 06:10:47;;;;;;;4.73;3.00;;;;;;;20.02;60.01;100905.47;4972512;28;20487;-72
2022/05/18 06:13:13;;;;;;;3.72;2.83;;;;;;;20.01;60.09;100901.91;4970425;28;20448;-71
2022/05/18 06:15:38;;;;;;;4.23;3.33;;;;;;;20.03;60.46;100899.66;4975223;28;20415;-72
2022/05/18 06:18:04;;;;;;;5.68;2.80;;;;;;;20.09;60.51;100900.38;4978955;28;20419;-72
2022/05/18 06:20:30;;;;;;;3.95;2.72;;;;;;;20.16;60.54;100906.34;4973193;28;20906;-71
2022/05/18 06:22:58;;;;;;;6.33;3.33;;;;;;;20.20;60.24;100910.16;4972545;28;20427;-71
2022/05/18 06:25:24;;;;;;;7.20;3.42;;;;;;;20.22;60.33;100910.66;4963527;28;20747;-71
2022/05/18 06:27:49;;;;;;;4.15;2.70;;;;;;;20.26;60.33;100913.63;4973638;28;20416;-71
2022/05/18 06:30:15;;;;;;;4.77;2.87;;;;;;;20.32;60.09;100916.03;4977893;28;21020;-71
2022/05/18 06:32:41;;;;;;;6.13;3.38;;;;;;;20.32;60.11;100918.78;4972691;28;20426;-72
2022/05/18 06:35:06;;;;;;;3.55;3.03;;;;;;;20.35;60.16;100914.66;4979830;28;20420;-71
2022/05/18 06:37:32;;;;;;;5.77;3.10;;;;;;;20.37;60.42;100915.97;4971325;28;20444;-71
2022/05/18 06:39:57;;;;;;;5.40;2.97;;;;;;;20.43;60.35;100916.72;4971899;28;20495;-71
2022/05/18 06:42:23;;;;;;;5.80;3.10;;;;;;;20.47;60.27;100915.81;4982246;28;20475;-71
2022/05/18 06:44:50;;;;;;;7.57;3.28;;;;;;;20.52;60.22;100920.41;4978923;28;21306;-71
2022/05/18 06:47:16;;;;;;;4.40;3.42;;;;;;;20.53;59.62;100922.88;4971509;28;20439;-71
2022/05/18 06:49:41;;;;;;;7.23;3.33;;;;;;;20.55;59.68;100919.81;4972905;28;20392;-71
2022/05/18 06:52:09;;;;;;;7.78;3.22;;;;;;;20.55;59.68;100917.06;4969399;28;20852;-71
2022/05/18 06:54:35;;;;;;;3.00;2.80;;;;;;;20.60;59.68;100914.22;4970611;28;20454;-71
2022/05/18 06:57:01;;;;;;;5.40;3.30;;;;;;;20.61;59.66;100924.13;4972614;28;20404;-71
2022/05/18 06:59:26;;;;;;;5.83;3.20;;;;;;;20.65;59.91;100925.16;4972884;28;20973;-71
2022/05/18 07:01:51;;;;;;;27.77;3.90;;;;;;;20.69;59.70;100923.44;4972379;28;20995;-71
2022/05/18 07:04:17;;;;;;;4.53;3.43;;;;;;;20.71;59.48;100918.47;4972275;28;20971;-71
2022/05/18 07:06:44;;;;;;;6.77;3.17;;;;;;;20.76;59.53;100914.78;4972542;28;20404;-71
2022/05/18 07:09:15;;;;;;;5.55;2.97;;;;;;;20.79;59.22;100915.00;4972773;28;20416;-71
2022/05/18 07:11:46;;;;;;;8.52;3.85;;;;;;;20.82;59.26;100927.34;4971232;28;20442;-71
2022/05/18 07:14:12;;;;;;;3.40;2.95;;;;;;;20.84;59.32;100914.13;4972555;28;20396;-71
2022/05/18 07:16:40;;;;;;;4.95;3.03;;;;;;;20.88;58.89;100917.91;4972351;28;20400;-71
2022/05/18 07:19:05;;;;;;;6.40;3.03;;;;;;;20.94;58.10;100913.94;4972633;28;20428;-71
2022/05/18 07:21:30;;;;;;;7.13;3.63;;;;;;;20.97;57.66;100911.41;4972504;28;20872;-71
2022/05/18 07:23:56;;;;;;;9.43;2.80;;;;;;;21.01;57.51;100912.41;4974155;28;20488;-71
2022/05/18 07:26:22;;;;;;;7.47;3.20;;;;;;;21.04;57.10;100919.28;4974490;28;20415;-71
2022/05/18 07:28:48;;;;;;;7.55;2.85;;;;;;;21.09;56.82;100910.91;4977098;28;20420;-71
2022/05/18 07:31:14;;;;;;;3.23;2.50;;;;;;;21.12;56.57;100910.31;4976018;28;20435;-71
2022/05/18 07:33:39;;;;;;;4.10;2.50;;;;;;;21.16;56.21;100917.69;4969521;28;21207;-71
2022/05/18 07:36:05;;;;;;;4.40;2.57;;;;;;;21.21;55.86;100914.00;4978176;28;20433;-71
2022/05/18 07:38:33;;;;;;;6.30;2.45;;;;;;;21.31;54.70;100919.31;4972364;28;20410;-71
2022/05/18 07:40:59;;;;;;;6.63;2.20;;;;;;;21.38;54.38;100919.72;4967475;28;20463;-71
2022/05/18 07:43:25;;;;;;;4.88;2.50;;;;;;;21.44;54.12;100924.03;4979884;28;20442;-72
2022/05/18 07:45:53;;;;;;;3.17;2.20;;;;;;;21.48;54.59;100922.28;4971002;28;20395;-71
2022/05/18 07:48:19;;;;;;;4.30;2.30;;;;;;;21.52;54.60;100925.25;4974451;28;20451;-72
2022/05/18 07:50:45;;;;;;;4.10;2.72;;;;;;;21.57;54.66;100930.69;4972187;28;20389;-71
2022/05/18 07:53:11;;;;;;;5.47;2.17;;;;;;;21.64;54.78;100928.31;4972145;28;20400;-71
2022/05/18 07:55:37;;;;;;;6.82;2.63;;;;;;;21.72;54.95;100933.13;4973547;28;20419;-71
2022/05/18 07:58:05;;;;;;;4.03;2.93;;;;;;;21.77;55.31;100923.94;4990695;28;20392;-71
2022/05/18 08:00:30;;;;;;;8.80;3.00;;;;;;;21.81;55.03;100930.44;4976063;28;20388;-71
2022/05/18 08:02:56;;;;;;;6.40;2.37;;;;;;;21.88;54.53;100928.09;4975770;28;20507;-71
2022/05/18 08:05:21;;;;;;;8.55;2.95;;;;;;;21.93;54.65;100931.59;4975751;28;20400;-71
2022/05/18 08:07:47;;;;;;;4.73;2.53;;;;;;;22.00;54.28;100931.16;4975542;28;21475;-71
2022/05/18 08:15:44;;;;;;;4.13;2.45;;;;;;;22.20;55.34;100930.72;4975601;28;20930;-71
2022/05/18 08:18:11;;;;;;;7.87;3.07;;;;;;;22.27;55.36;100925.59;4975533;28;20400;-71
2022/05/18 08:20:39;;;;;;;5.18;2.80;;;;;;;22.34;54.87;100930.69;4975371;28;20412;-71
2022/05/18 08:23:05;;;;;;;5.70;2.33;;;;;;;22.40;54.92;100933.00;4975359;28;20446;-71
2022/05/18 08:25:31;;;;;;;7.13;2.70;;;;;;;22.45;54.64;100932.09;4972307;28;21792;-71
2022/05/18 08:27:56;;;;;;;5.13;2.83;;;;;;;22.51;54.54;100923.38;4975122;28;20447;-71
2022/05/18 08:30:22;;;;;;;4.17;2.73;;;;;;;22.61;54.13;100930.59;4972405;28;20495;-71
2022/05/18 08:32:47;;;;;;;3.90;2.07;;;;;;;22.65;54.05;100932.41;4976718;28;20416;-72
2022/05/18 08:35:14;;;;;;;5.28;2.40;;;;;;;22.72;53.71;100932.78;4975034;28;20472;-71
2022/05/18 08:37:46;;;;;;;3.50;2.35;;;;;;;22.78;53.48;100930.75;4974987;28;20414;-71
2022/05/18 08:40:40;;;;;;;3.80;2.43;;;;;;;22.89;53.66;100931.28;4974736;28;20417;-71
2022/05/18 08:43:09;;;;;;;4.25;2.53;;;;;;;22.98;53.27;100934.94;4974886;28;20430;-71
2022/05/18 08:45:38;;;;;;;6.65;2.40;;;;;;;23.09;52.13;100925.22;4973991;28;20419;-71
2022/05/18 08:48:32;;;;;;;6.70;2.03;;;;;;;23.18;52.14;100923.34;4968151;28;20422;-71
2022/05/18 08:51:05;;;;;;;4.32;2.67;;;;;;;23.26;51.96;100923.38;4961913;28;20406;-71
2022/05/18 08:53:41;;;;;;;3.28;2.10;;;;;;;23.37;52.21;100923.09;4964351;28;20396;-71
2022/05/18 08:56:33;;;;;;;2.80;2.53;;;;;;;23.48;52.10;100916.19;4969330;28;20590;-71
2022/05/18 08:59:02;;;;;;;2.93;2.30;;;;;;;23.57;50.91;100920.63;4968691;28;20478;-71
2022/05/18 09:01:40;;;;;;;7.60;2.50;;;;;;;23.66;51.69;100913.16;4973036;28;20770;-71
2022/05/18 09:04:18;;;;;;;2.92;2.50;;;;;;;23.79;51.38;100919.69;4974551;28;20482;-71
2022/05/18 09:06:52;;;;;;;2.88;2.22;;;;;;;23.88;50.70;100914.97;4961215;28;20879;-71
2022/05/18 09:12:06;;;;;;;4.80;2.57;;;;;;;24.11;49.27;100913.72;4972989;28;20461;-71
2022/05/18 09:14:39;;;;;;;3.17;2.20;;;;;;;24.22;48.82;100915.06;4985049;28;20424;-71
2022/05/18 09:17:13;;;;;;;5.28;2.80;;;;;;;24.30;49.27;100910.69;4973435;28;20546;-71
2022/05/18 09:19:56;;;;;;;4.13;2.20;;;;;;;24.42;49.44;100910.03;4975048;28;21041;-71
2022/05/18 09:22:52;;;;;;;5.45;2.30;;;;;;;24.53;48.77;100903.84;4972872;28;20410;-71
2022/05/18 09:25:36;;;;;;;2.92;2.50;;;;;;;24.66;48.76;100908.38;4975832;28;20406;-71
2022/05/18 09:28:17;;;;;;;4.57;2.35;;;;;;;24.86;48.01;100909.69;4973706;28;20467;-71
2022/05/18 09:31:10;;;;;;;3.72;2.22;;;;;;;24.99;47.29;100905.09;4973170;28;20447;-70
2022/05/18 09:33:51;;;;;;;5.50;2.40;;;;;;;25.10;46.54;100906.34;4974056;28;20450;-71
2022/05/18 09:36:34;;;;;;;3.33;2.28;;;;;;;25.32;46.50;100905.28;4984553;28;20425;-71
2022/05/18 09:39:13;;;;;;;4.45;1.90;;;;;;;25.45;46.19;100905.06;4974793;28;20500;-70
2022/05/18 09:41:44;;;;;;;3.03;2.80;;;;;;;25.59;46.04;100900.13;4971359;28;20416;-71
2022/05/18 09:44:37;;;;;;;2.63;1.83;;;;;;;25.82;46.29;100897.84;4968935;28;20913;-71
2022/05/18 09:47:03;;;;;;;6.18;2.30;;;;;;;25.94;45.95;100900.75;4973036;28;20480;-71
2022/05/18 09:49:34;;;;;;;5.10;2.50;;;;;;;26.09;45.37;100899.31;4975223;28;20418;-71
2022/05/18 09:52:03;;;;;;;3.75;1.90;;;;;;;26.28;44.72;100900.50;4972109;28;20428;-70
2022/05/18 09:54:33;;;;;;;3.50;2.05;;;;;;;26.58;44.66;100890.09;4974348;28;20410;-71
2022/05/18 09:57:06;;;;;;;3.65;1.90;;;;;;;27.12;43.08;100892.84;4983409;28;20445;-71
2022/05/18 09:59:37;;;;;;;2.60;1.90;;;;;;;28.00;41.22;100892.97;4974040;28;20442;-71
2022/05/18 10:07:48;;;;;;;1.70;1.60;;;;;;;31.47;33.81;100884.53;4974519;28;21025;-69
2022/05/18 10:10:16;;;;;;;1.58;1.35;;;;;;;32.26;32.28;100882.56;4974821;28;20576;-69
2022/05/18 10:12:48;;;;;;;3.25;1.77;;;;;;;33.02;31.06;100877.44;4971571;28;20420;-69
2022/05/18 10:15:29;;;;;;;1.75;1.52;;;;;;;33.51;29.87;100879.88;4970388;28;20487;-69
2022/05/18 10:17:57;;;;;;;4.18;1.90;;;;;;;33.87;29.04;100876.97;4972946;28;20410;-69
2022/05/18 10:20:23;;;;;;;4.70;1.75;;;;;;;34.17;28.85;100881.56;4970275;28;20416;-69
2022/05/18 10:22:49;;;;;;;2.90;1.70;;;;;;;34.25;28.37;100883.22;4978600;28;20814;-69
2022/05/18 10:25:23;;;;;;;3.42;1.67;;;;;;;34.73;27.51;100869.72;4971590;28;20497;-69
2022/05/18 10:27:50;;;;;;;2.08;1.88;;;;;;;34.98;27.55;100879.03;4970390;28;20456;-70
2022/05/18 10:30:28;;;;;;;2.60;1.70;;;;;;;35.16;27.17;100876.25;4972723;28;20412;-69
2022/05/18 10:33:08;;;;;;;2.05;1.67;;;;;;;35.30;26.52;100879.09;4970222;28;20441;-69
2022/05/18 10:35:49;;;;;;;6.07;2.13;;;;;;;35.52;26.08;100877.06;4967245;28;20420;-69
2022/05/18 10:38:30;;;;;;;4.85;1.58;;;;;;;36.17;25.70;100887.84;4977921;28;20410;-69
2022/05/18 10:41:11;;;;;;;3.05;1.98;;;;;;;36.62;24.67;100877.63;4975819;28;20900;-70
2022/05/18 10:43:40;;;;;;;2.65;2.08;;;;;;;36.91;24.44;100871.38;4977579;28;20782;-70
2022/05/18 10:46:31;;;;;;;5.03;1.63;;;;;;;37.02;23.71;100873.34;4971863;28;20908;-69
2022/05/18 10:49:05;;;;;;;2.05;1.58;;;;;;;37.18;23.81;100870.81;4961560;28;20490;-70
2022/05/18 10:51:45;;;;;;;3.80;1.80;;;;;;;37.54;23.39;100866.47;4971220;28;20891;-70
2022/05/18 10:54:23;;;;;;;5.32;2.15;;;;;;;37.69;23.28;100855.81;4970545;28;20972;-69
2022/05/18 10:56:50;;;;;;;2.73;1.80;;;;;;;37.90;22.87;100856.38;4959325;28;20415;-69
2022/05/18 10:59:36;;;;;;;1.88;1.63;;;;;;;37.88;22.46;100846.69;4972315;28;20424;-70
2022/05/18 11:02:24;;;;;;;6.05;1.40;;;;;;;38.00;22.25;100845.41;4969647;28;20412;-70
2022/05/18 11:05:16;;;;;;;3.58;1.30;;;;;;;38.01;21.70;100844.16;4970982;28;20519;-70
2022/05/18 11:07:43;;;;;;;1.90;1.25;;;;;;;38.13;20.98;100850.09;4965781;28;20420;-70
2022/05/18 11:10:09;;;;;;;2.05;1.10;;;;;;;38.34;21.12;100837.66;4969453;28;20467;-70
2022/05/18 11:12:47;;;;;;;1.30;1.20;;;;;;;38.49;20.52;100833.44;4972193;28;20392;-70
2022/05/18 11:15:16;;;;;;;2.92;1.40;;;;;;;38.43;20.11;100830.28;4970248;28;20415;-70
2022/05/18 11:18:04;;;;;;;1.40;1.30;;;;;;;38.42;20.26;100825.84;4968007;28;20564;-71
2022/05/18 11:20:40;;;;;;;1.73;1.10;;;;;;;38.48;20.01;100822.53;4959972;28;20419;-71
2022/05/18 11:23:14;;;;;;;6.93;1.40;;;;;;;38.47;19.67;100827.38;4968550;28;20412;-71
2022/05/18 11:25:43;;;;;;;4.13;1.20;;;;;;;38.45;19.95;100818.53;4966029;28;20416;-70
2022/05/18 11:28:30;;;;;;;2.60;1.10;;;;;;;38.59;19.59;100814.69;4969460;28;20456;-70
2022/05/18 11:31:04;;;;;;;2.40;1.02;;;;;;;38.51;19.58;100816.00;4973778;28;20415;-70
2022/05/18 11:33:39;;;;;;;3.70;0.90;;;;;;;38.37;19.07;100817.00;4975719;28;20785;-71
2022/05/18 11:36:30;;;;;;;0.95;0.80;;;;;;;38.22;19.69;100809.94;4975360;28;21014;-70
2022/05/18 11:39:05;;;;;;;1.00;0.90;;;;;;;38.06;19.69;100801.25;4972399;28;20415;-70
2022/05/18 11:41:56;;;;;;;2.50;1.10;;;;;;;37.90;19.64;100802.63;4973785;28;20539;-70
2022/05/18 11:44:45;;;;;;;1.67;1.20;;;;;;;37.92;19.88;100805.84;4976847;28;20414;-70
2022/05/18 11:47:31;;;;;;;1.20;1.20;;;;;;;37.95;20.22;100807.03;4972127;28;20412;-70
2022/05/18 11:50:37;;;;;;;1.50;1.10;;;;;;;38.02;20.12;100801.28;4974273;28;20427;-70
2022/05/18 11:53:17;;;;;;;0.90;0.90;;;;;;;38.28;20.17;100794.06;4969401;28;20440;-69